Time;durP1;ratioP1;P1;durP2;ratioP2;P2;SDS_P1;SDS_P2;PMS_P1;PMS_P2;Temp;Humidity;BMP_temperature;BMP_pressure;BME280_temperature;BME280_humidity;BME280_pressure;Samples;Min_cycle;Max_cycle;Signal;HPM_P1;HPM_P2
2022/01/31 00:02:22;;;;;;;0.20;0.20;;;;;;;20.32;41.49;101270.84;5129619;27;20036;-30
2022/01/31 00:04:48;;;;;;;0.20;0.20;;;;;;;20.33;41.63;101264.19;5132275;27;20058;-30
2022/01/31 00:07:14;;;;;;;0.20;0.20;;;;;;;20.31;41.78;101233.25;5135292;27;20035;-30
2022/01/31 00:09:42;;;;;;;0.20;0.20;;;;;;;20.32;41.76;101218.28;5131759;27;20486;-30
2022/01/31 00:12:11;;;;;;;0.10;0.10;;;;;;;20.34;41.52;101193.97;5120956;27;20040;-30
2022/01/31 00:14:48;;;;;;;0.20;0.20;;;;;;;20.34;41.50;101193.97;5129201;27;20079;-29
2022/01/31 00:17:14;;;;;;;0.20;0.20;;;;;;;20.35;41.75;101214.16;5124837;27;20074;-30
2022/01/31 00:19:42;;;;;;;0.20;0.20;;;;;;;20.34;41.78;101221.63;5139185;27;20089;-29
2022/01/31 00:22:09;;;;;;;0.20;0.20;;;;;;;20.34;41.46;101221.63;5100922;27;20051;-30
2022/01/31 00:24:35;;;;;;;0.10;0.10;;;;;;;20.35;41.67;101222.44;5132324;27;20043;-31
2022/01/31 00:27:02;;;;;;;0.20;0.20;;;;;;;20.35;41.59;101214.16;5115853;28;20035;-31
2022/01/31 00:29:27;;;;;;;0.20;0.20;;;;;;;20.34;41.53;101207.78;5126700;27;20079;-30
2022/01/31 00:31:53;;;;;;;0.20;0.20;;;;;;;20.35;41.81;101187.31;5122099;27;20482;-30
2022/01/31 00:34:19;;;;;;;0.20;0.20;;;;;;;20.34;41.54;101177.38;5132764;27;20043;-30
2022/01/31 00:36:45;;;;;;;0.20;0.20;;;;;;;20.34;41.90;101158.00;5123971;27;20085;-30
2022/01/31 00:39:10;;;;;;;0.20;0.20;;;;;;;20.34;41.49;101157.19;5126507;27;20041;-29
2022/01/31 00:41:36;;;;;;;0.20;0.20;;;;;;;20.34;41.62;101144.19;5089796;28;20039;-31
2022/01/31 00:44:14;;;;;;;0.20;0.20;;;;;;;20.34;41.53;101138.66;5128832;27;20039;-29
2022/01/31 00:46:45;;;;;;;0.20;0.20;;;;;;;20.34;41.66;101141.41;5111110;27;20043;-30
2022/01/31 00:49:23;;;;;;;0.13;0.13;;;;;;;20.36;41.62;101146.66;5134211;27;20484;-30
2022/01/31 00:51:49;;;;;;;0.20;0.20;;;;;;;20.34;41.85;101121.22;5128400;27;20043;-30
2022/01/31 00:54:14;;;;;;;0.20;0.20;;;;;;;20.34;41.83;101115.69;5123505;27;20043;-30
2022/01/31 00:56:40;;;;;;;0.20;0.20;;;;;;;20.35;41.40;101100.75;5125205;27;20055;-30
2022/01/31 00:59:06;;;;;;;0.20;0.20;;;;;;;20.35;41.74;101084.16;5117237;27;20039;-30
2022/01/31 01:01:32;;;;;;;0.20;0.20;;;;;;;20.35;41.54;101076.69;5129573;27;20482;-31
2022/01/31 01:03:57;;;;;;;0.20;0.20;;;;;;;20.34;41.58;101055.66;5118192;27;20080;-31
2022/01/31 01:06:23;;;;;;;0.20;0.20;;;;;;;20.34;41.69;101043.78;5124741;27;20043;-30
2022/01/31 01:08:49;;;;;;;0.20;0.20;;;;;;;20.34;41.44;101036.31;5131260;27;20407;-32
2022/01/31 01:11:15;;;;;;;0.20;0.20;;;;;;;20.34;41.37;101024.44;5124476;27;20048;-30
2022/01/31 01:13:40;;;;;;;0.20;0.20;;;;;;;20.35;41.68;101013.06;5126225;27;20099;-30
2022/01/31 01:16:06;;;;;;;0.20;0.20;;;;;;;20.35;41.86;101002.00;5132349;27;20040;-29
2022/01/31 01:18:32;;;;;;;0.20;0.20;;;;;;;20.35;41.52;100982.63;5129308;27;20050;-30
2022/01/31 01:20:58;;;;;;;0.20;0.20;;;;;;;20.35;41.65;100962.47;5132491;27;20039;-31
2022/01/31 01:23:24;;;;;;;0.20;0.20;;;;;;;20.34;41.28;100956.09;5123044;27;20503;-30
2022/01/31 01:25:50;;;;;;;0.20;0.20;;;;;;;20.34;41.54;100942.28;5135207;27;20438;-30
2022/01/31 01:28:16;;;;;;;0.20;0.20;;;;;;;20.35;41.49;100937.56;5111627;27;20061;-34
2022/01/31 01:30:42;;;;;;;0.20;0.20;;;;;;;20.35;41.66;100924.56;5124716;27;20042;-30
2022/01/31 01:33:17;;;;;;;0.20;0.20;;;;;;;20.36;41.71;100914.31;5125113;27;20572;-33
2022/01/31 01:35:42;;;;;;;0.20;0.20;;;;;;;20.36;41.77;100903.25;5130520;27;20051;-30
2022/01/31 01:38:08;;;;;;;0.20;0.20;;;;;;;20.36;41.49;100892.19;5109707;27;20394;-30
2022/01/31 01:40:37;;;;;;;0.20;0.20;;;;;;;20.35;41.82;100893.31;5126692;27;20047;-31
2022/01/31 01:43:05;;;;;;;0.20;0.20;;;;;;;20.36;41.43;100867.28;5114151;27;20051;-31
2022/01/31 01:45:30;;;;;;;0.20;0.20;;;;;;;20.35;41.74;100860.13;5132875;27;20085;-30
2022/01/31 01:47:56;;;;;;;0.20;0.20;;;;;;;20.35;41.71;100849.88;5125788;27;20389;-30
2022/01/31 01:50:22;;;;;;;0.20;0.20;;;;;;;20.35;41.34;100851.81;5115987;27;20046;-30
2022/01/31 01:52:47;;;;;;;0.20;0.20;;;;;;;20.35;41.41;100827.75;5104806;27;20394;-30
2022/01/31 01:55:14;;;;;;;0.20;0.20;;;;;;;20.35;41.48;100808.38;5107610;27;20045;-31
2022/01/31 01:57:40;;;;;;;0.20;0.20;;;;;;;20.35;41.76;100802.84;5136161;27;20053;-30
2022/01/31 02:00:08;;;;;;;0.20;0.20;;;;;;;20.35;41.32;100800.09;5137389;27;20043;-30
2022/01/31 02:02:34;;;;;;;0.20;0.20;;;;;;;20.36;41.63;100787.09;5128262;27;20506;-30
2022/01/31 02:05:00;;;;;;;0.20;0.20;;;;;;;20.36;41.52;100776.84;5132747;27;20094;-30
2022/01/31 02:07:26;;;;;;;0.20;0.20;;;;;;;20.36;41.45;100768.53;5127416;27;20354;-31
2022/01/31 02:09:55;;;;;;;0.20;0.20;;;;;;;20.38;41.31;100752.50;5131184;27;20363;-34
2022/01/31 02:12:22;;;;;;;0.20;0.20;;;;;;;20.38;41.71;100740.59;5131363;27;20043;-31
2022/01/31 02:14:48;;;;;;;0.20;0.20;;;;;;;20.36;41.59;100732.59;5129977;27;20075;-34
2022/01/31 02:17:14;;;;;;;0.20;0.20;;;;;;;20.36;41.49;100737.31;5123092;28;20058;-32
2022/01/31 02:19:40;;;;;;;0.20;0.20;;;;;;;20.36;41.41;100729.00;5127343;27;20044;-30
2022/01/31 02:22:06;;;;;;;0.20;0.20;;;;;;;20.36;41.40;100715.19;5125926;27;20100;-30
2022/01/31 02:24:31;;;;;;;0.20;0.20;;;;;;;20.38;41.66;100707.41;5132868;27;20035;-30
2022/01/31 02:26:57;;;;;;;0.20;0.20;;;;;;;20.36;41.58;100691.09;5123201;27;20050;-32
2022/01/31 02:29:23;;;;;;;0.20;0.20;;;;;;;20.37;41.59;100689.97;5130556;27;20043;-30
2022/01/31 02:31:49;;;;;;;0.20;0.20;;;;;;;20.36;41.50;100682.00;5101881;27;20558;-32
2022/01/31 02:34:16;;;;;;;0.20;0.20;;;;;;;20.38;41.39;100679.75;5109503;27;20501;-30
2022/01/31 02:36:42;;;;;;;0.20;0.20;;;;;;;20.37;41.51;100667.03;5122269;27;20591;-29
2022/01/31 02:39:08;;;;;;;0.20;0.20;;;;;;;20.37;41.38;100658.75;5114629;27;20101;-29
2022/01/31 02:41:42;;;;;;;0.20;0.20;;;;;;;20.36;41.42;100651.56;5129960;27;20035;-30
2022/01/31 02:44:14;;;;;;;0.20;0.20;;;;;;;20.37;41.48;100642.16;5129617;27;20042;-30
2022/01/31 02:46:48;;;;;;;0.20;0.20;;;;;;;20.37;41.44;100636.63;5120594;27;20047;-29
2022/01/31 02:49:16;;;;;;;0.20;0.20;;;;;;;20.38;41.63;100638.25;5127714;27;20044;-30
2022/01/31 02:51:47;;;;;;;0.20;0.20;;;;;;;20.38;41.42;100629.97;5122632;27;20075;-29
2022/01/31 02:54:13;;;;;;;0.20;0.20;;;;;;;20.38;41.82;100616.97;5099062;27;20379;-31
2022/01/31 02:56:40;;;;;;;0.20;0.20;;;;;;;20.38;41.35;100607.84;5133642;27;20153;-28
2022/01/31 02:59:06;;;;;;;0.20;0.20;;;;;;;20.38;41.50;100605.06;5138035;27;20042;-30
2022/01/31 03:01:35;;;;;;;0.10;0.10;;;;;;;20.38;41.56;100599.53;5137810;27;20074;-30
2022/01/31 03:04:00;;;;;;;0.20;0.20;;;;;;;20.38;41.54;100591.25;5105701;27;20133;-29
2022/01/31 03:06:26;;;;;;;0.20;0.20;;;;;;;20.38;41.34;100588.47;5140025;27;20046;-30
2022/01/31 03:08:52;;;;;;;0.20;0.20;;;;;;;20.38;41.09;100585.72;5134337;27;20223;-30
2022/01/31 03:11:17;;;;;;;0.20;0.20;;;;;;;20.38;41.37;100564.44;5132501;27;20347;-30
2022/01/31 03:13:43;;;;;;;0.10;0.10;;;;;;;20.37;41.51;100560.00;5118563;27;20481;-31
2022/01/31 03:16:09;;;;;;;0.20;0.20;;;;;;;20.37;41.44;100557.22;5122525;27;20036;-30
2022/01/31 03:18:34;;;;;;;0.20;0.20;;;;;;;20.37;41.65;100553.66;5125265;27;20104;-30
2022/01/31 03:21:00;;;;;;;0.20;0.20;;;;;;;20.38;41.58;100546.97;5127387;27;20136;-30
2022/01/31 03:23:26;;;;;;;0.20;0.20;;;;;;;20.38;41.59;100541.44;5129446;27;20039;-30
2022/01/31 03:25:51;;;;;;;0.13;0.13;;;;;;;20.37;41.21;100531.53;5112773;28;20423;-29
2022/01/31 03:28:17;;;;;;;0.20;0.20;;;;;;;20.37;41.58;100529.56;5125399;27;20042;-29
2022/01/31 03:30:43;;;;;;;0.20;0.20;;;;;;;20.38;41.33;100535.91;5130492;27;20043;-29
2022/01/31 03:33:08;;;;;;;0.20;0.20;;;;;;;20.37;41.52;100529.56;5122722;27;20036;-31
2022/01/31 03:35:34;;;;;;;0.20;0.20;;;;;;;20.37;41.24;100529.56;5135354;27;20296;-29
2022/01/31 03:38:00;;;;;;;0.20;0.20;;;;;;;20.37;41.53;100514.94;5134085;27;20127;-30
2022/01/31 03:40:26;;;;;;;0.13;0.13;;;;;;;20.37;41.44;100512.16;5112650;27;20043;-29
2022/01/31 03:42:51;;;;;;;0.20;0.20;;;;;;;20.35;41.37;100503.34;5121226;27;20035;-30
2022/01/31 03:45:18;;;;;;;0.20;0.20;;;;;;;20.34;41.40;100498.94;5125059;27;20431;-30
2022/01/31 03:47:45;;;;;;;0.20;0.20;;;;;;;20.36;41.24;100491.16;5130461;27;20044;-30
2022/01/31 03:50:13;;;;;;;0.20;0.20;;;;;;;20.35;41.58;100478.47;5123439;27;20405;-30
2022/01/31 03:52:39;;;;;;;0.20;0.20;;;;;;;20.35;41.50;100492.28;5124112;27;20063;-30
2022/01/31 03:55:05;;;;;;;0.20;0.20;;;;;;;20.36;41.49;100477.34;5126325;27;20630;-29
2022/01/31 03:57:31;;;;;;;0.20;0.20;;;;;;;20.34;41.26;100466.59;5128089;27;20047;-30
2022/01/31 03:59:57;;;;;;;0.20;0.20;;;;;;;20.34;41.42;100465.78;5144194;27;20057;-30
2022/01/31 04:02:22;;;;;;;0.20;0.20;;;;;;;20.33;41.61;100470.44;5133103;27;20062;-30
2022/01/31 04:04:48;;;;;;;0.20;0.20;;;;;;;20.34;41.45;100458.28;5107760;27;20058;-31
2022/01/31 04:07:14;;;;;;;0.20;0.20;;;;;;;20.34;41.30;100451.94;5131788;27;20043;-30
2022/01/31 04:09:40;;;;;;;0.20;0.20;;;;;;;20.33;41.32;100434.50;5123745;27;20379;-30
2022/01/31 04:12:06;;;;;;;0.10;0.10;;;;;;;20.32;41.41;100435.63;5127461;27;20096;-31
2022/01/31 04:14:32;;;;;;;0.20;0.20;;;;;;;20.32;41.23;100437.56;5133739;27;20398;-31
2022/01/31 04:16:59;;;;;;;0.20;0.20;;;;;;;20.33;41.13;100444.75;5128847;27;20043;-29
2022/01/31 04:19:25;;;;;;;0.10;0.10;;;;;;;20.32;41.41;100449.44;5130985;27;20050;-30
2022/01/31 04:21:51;;;;;;;0.20;0.20;;;;;;;20.32;41.09;100449.44;5125008;27;20043;-30
2022/01/31 04:24:23;;;;;;;0.20;0.20;;;;;;;20.31;41.12;100436.75;5091131;27;20232;-31
2022/01/31 04:26:58;;;;;;;0.15;0.15;;;;;;;20.31;41.39;100436.75;5111555;27;20464;-30
2022/01/31 04:29:24;;;;;;;0.20;0.20;;;;;;;20.31;41.22;100428.47;5127233;27;20043;-30
2022/01/31 04:31:51;;;;;;;0.20;0.20;;;;;;;20.30;41.48;100419.34;5126345;27;20043;-30
2022/01/31 04:34:18;;;;;;;0.20;0.20;;;;;;;20.31;41.27;100431.22;5129286;27;20387;-30
2022/01/31 04:36:45;;;;;;;0.20;0.20;;;;;;;20.30;41.55;100421.28;5119707;28;20081;-32
2022/01/31 04:39:16;;;;;;;0.20;0.20;;;;;;;20.30;41.23;100426.81;5129905;27;20039;-29
2022/01/31 04:41:42;;;;;;;0.20;0.20;;;;;;;20.29;41.27;100423.25;5123969;27;20047;-29
2022/01/31 04:44:08;;;;;;;0.20;0.20;;;;;;;20.29;41.20;100425.16;5124697;27;20047;-31
2022/01/31 04:46:34;;;;;;;0.20;0.20;;;;;;;20.29;41.43;100431.53;5116850;28;20471;-30
2022/01/31 04:49:00;;;;;;;0.20;0.20;;;;;;;20.29;41.24;100427.94;5128857;27;20040;-29
2022/01/31 04:51:26;;;;;;;0.20;0.20;;;;;;;20.30;41.18;100424.06;5125968;27;20046;-30
2022/01/31 04:53:52;;;;;;;0.10;0.10;;;;;;;20.29;41.53;100427.94;5126563;27;20062;-32
2022/01/31 04:56:19;;;;;;;0.20;0.20;;;;;;;20.27;41.22;100428.22;5131100;27;20410;-30
2022/01/31 04:58:44;;;;;;;0.20;0.20;;;;;;;20.28;41.50;100418.81;5120714;27;20057;-31
2022/01/31 05:01:10;;;;;;;0.20;0.20;;;;;;;20.28;41.36;100418.81;5131125;27;20390;-29
2022/01/31 05:03:36;;;;;;;0.20;0.20;;;;;;;20.28;41.37;100418.81;5128189;27;20133;-30
2022/01/31 05:06:02;;;;;;;0.20;0.20;;;;;;;20.28;41.17;100409.69;5101654;28;20439;-30
2022/01/31 05:08:29;;;;;;;0.20;0.20;;;;;;;20.28;41.13;100404.16;5130985;27;20038;-30
2022/01/31 05:10:55;;;;;;;0.20;0.20;;;;;;;20.26;41.51;100393.41;5131540;27;20047;-30
2022/01/31 05:13:21;;;;;;;0.10;0.10;;;;;;;20.26;41.42;100401.72;5114603;27;20074;-30
2022/01/31 05:15:47;;;;;;;0.20;0.20;;;;;;;20.27;41.32;100402.53;5131895;27;20051;-29
2022/01/31 05:18:13;;;;;;;0.20;0.20;;;;;;;20.27;41.34;100395.06;5129902;27;20043;-31
2022/01/31 05:20:39;;;;;;;0.20;0.20;;;;;;;20.27;41.42;100395.06;5133210;27;20066;-30
2022/01/31 05:23:06;;;;;;;0.20;0.20;;;;;;;20.27;41.30;100386.75;5124402;27;20039;-31
2022/01/31 05:25:33;;;;;;;0.10;0.10;;;;;;;20.26;41.58;100378.78;5138194;27;20063;-30
2022/01/31 05:27:59;;;;;;;0.20;0.20;;;;;;;20.27;41.36;100380.41;5108503;27;20042;-31
2022/01/31 05:30:25;;;;;;;0.20;0.20;;;;;;;20.27;41.42;100381.22;5127997;27;20467;-30
2022/01/31 05:32:51;;;;;;;0.20;0.20;;;;;;;20.27;41.32;100372.94;5104833;27;20069;-30
2022/01/31 05:35:16;;;;;;;0.20;0.20;;;;;;;20.27;41.40;100372.13;5123289;27;20079;-29
2022/01/31 05:37:42;;;;;;;0.10;0.10;;;;;;;20.26;41.13;100376.81;5124374;27;20055;-30
2022/01/31 05:40:09;;;;;;;0.20;0.20;;;;;;;20.29;41.29;100372.63;5121288;28;20047;-31
2022/01/31 05:42:34;;;;;;;0.15;0.15;;;;;;;20.27;41.32;100374.88;5124963;27;20489;-30
2022/01/31 05:45:01;;;;;;;0.20;0.20;;;;;;;20.26;41.38;100368.53;5131940;27;20748;-29
2022/01/31 05:47:27;;;;;;;0.20;0.20;;;;;;;20.28;41.15;100370.97;5105127;28;20077;-30
2022/01/31 05:49:53;;;;;;;0.20;0.20;;;;;;;20.27;41.28;100369.34;5129218;27;20050;-29
2022/01/31 05:52:18;;;;;;;0.20;0.20;;;;;;;20.26;41.35;100364.94;5103120;27;20126;-30
2022/01/31 05:54:44;;;;;;;0.10;0.10;;;;;;;20.26;41.41;100371.28;5130905;27;20036;-30
2022/01/31 05:57:11;;;;;;;0.20;0.20;;;;;;;20.28;41.16;100362.69;5126519;27;20540;-30
2022/01/31 05:59:39;;;;;;;0.20;0.20;;;;;;;20.25;41.50;100358.59;5131436;27;20394;-30
2022/01/31 06:02:05;;;;;;;0.10;0.10;;;;;;;20.26;41.16;100353.88;5094699;27;20082;-31
2022/01/31 06:04:31;;;;;;;0.20;0.20;;;;;;;20.26;41.33;100338.13;5106279;27;20393;-32
2022/01/31 06:06:57;;;;;;;0.15;0.15;;;;;;;20.26;41.39;100338.13;5113883;28;20047;-30
2022/01/31 06:09:23;;;;;;;0.20;0.20;;;;;;;20.25;41.49;100330.94;5132154;27;20494;-30
2022/01/31 06:11:49;;;;;;;0.15;0.15;;;;;;;20.27;41.14;100327.88;5128877;27;20062;-34
2022/01/31 06:14:16;;;;;;;0.20;0.20;;;;;;;20.26;41.15;100329.81;5112309;27;20039;-30
2022/01/31 06:16:41;;;;;;;0.20;0.20;;;;;;;20.27;41.06;100327.88;5115951;28;20047;-29
2022/01/31 06:19:07;;;;;;;0.20;0.20;;;;;;;20.25;41.12;100336.47;5113714;27;20465;-30
2022/01/31 06:21:33;;;;;;;0.20;0.20;;;;;;;20.24;41.15;100326.53;5112930;27;20379;-30
2022/01/31 06:23:59;;;;;;;0.17;0.17;;;;;;;20.25;41.15;100321.81;5102475;27;20055;-30
2022/01/31 06:26:25;;;;;;;0.20;0.20;;;;;;;20.26;40.98;100324.28;5111825;27;20051;-29
2022/01/31 06:28:50;;;;;;;0.20;0.20;;;;;;;20.26;40.96;100309.66;5128345;27;20051;-30
2022/01/31 06:31:16;;;;;;;0.20;0.20;;;;;;;20.25;41.27;100310.75;5111471;27;20061;-30
2022/01/31 06:33:42;;;;;;;0.20;0.20;;;;;;;20.24;41.30;100312.69;5111968;28;20493;-31
2022/01/31 06:36:08;;;;;;;0.20;0.20;;;;;;;20.25;41.39;100317.13;5109437;27;20071;-30
2022/01/31 06:38:35;;;;;;;0.20;0.20;;;;;;;20.25;41.31;100311.59;5131697;27;20082;-30
2022/01/31 06:41:02;;;;;;;0.20;0.20;;;;;;;20.26;41.13;100315.19;5110899;28;20168;-30
2022/01/31 06:43:28;;;;;;;0.20;0.20;;;;;;;20.24;41.23;100304.41;5123020;27;20590;-31
2022/01/31 06:45:54;;;;;;;0.20;0.20;;;;;;;20.25;41.38;100314.38;5126010;27;20063;-31
2022/01/31 06:48:20;;;;;;;0.20;0.20;;;;;;;20.25;41.14;100319.03;5108363;27;20127;-29
2022/01/31 06:50:45;;;;;;;0.10;0.10;;;;;;;20.26;41.22;100321.53;5131495;27;20047;-32
2022/01/31 06:53:12;;;;;;;0.20;0.20;;;;;;;20.25;41.45;100314.38;5104100;27;20050;-31
2022/01/31 06:55:38;;;;;;;0.10;0.10;;;;;;;20.27;41.31;100319.56;5124504;27;20050;-30
2022/01/31 06:58:04;;;;;;;0.20;0.20;;;;;;;20.26;41.18;100318.75;5127735;27;20047;-30
2022/01/31 07:00:30;;;;;;;0.20;0.20;;;;;;;20.26;41.17;100331.78;5103436;27;20082;-32
2022/01/31 07:02:56;;;;;;;0.20;0.20;;;;;;;20.27;41.05;100344.47;5125354;27;20070;-33
2022/01/31 07:05:22;;;;;;;0.20;0.20;;;;;;;20.25;41.07;100363.28;5110177;28;20375;-30
2022/01/31 07:07:48;;;;;;;0.10;0.10;;;;;;;20.25;41.33;100385.41;5129207;27;20070;-32
2022/01/31 07:10:14;;;;;;;0.20;0.20;;;;;;;20.25;41.39;100375.19;5130322;27;20049;-35
2022/01/31 07:12:47;;;;;;;0.10;0.10;;;;;;;20.24;41.10;100362.47;5124675;27;20067;-30
2022/01/31 07:15:13;;;;;;;0.10;0.10;;;;;;;20.25;41.38;100343.94;5105132;27;20086;-34
2022/01/31 07:17:40;;;;;;;0.20;0.20;;;;;;;20.24;41.05;100337.59;5106805;27;20075;-31
2022/01/31 07:20:10;;;;;;;0.20;0.20;;;;;;;20.24;41.22;100328.47;5103572;27;20134;-30
2022/01/31 07:22:38;;;;;;;0.20;0.20;;;;;;;20.25;41.46;100330.09;5125089;27;20062;-31
2022/01/31 07:25:08;;;;;;;0.10;0.10;;;;;;;20.24;41.28;100322.94;5126039;27;20071;-33
2022/01/31 07:27:34;;;;;;;0.10;0.10;;;;;;;20.24;41.28;100315.47;5129446;27;20078;-31
2022/01/31 07:30:01;;;;;;;0.20;0.20;;;;;;;20.24;41.34;100306.34;5107156;28;20070;-30
2022/01/31 07:32:27;;;;;;;0.10;0.10;;;;;;;20.24;41.27;100321.00;5117575;27;20042;-31
2022/01/31 07:34:55;;;;;;;0.20;0.20;;;;;;;20.24;41.14;100322.94;5102093;27;20380;-31
2022/01/31 07:37:23;;;;;;;0.20;0.20;;;;;;;20.24;41.05;100315.47;5120526;27;20086;-32
2022/01/31 07:39:49;;;;;;;0.20;0.20;;;;;;;20.23;41.10;100304.72;5105738;27;20070;-31
2022/01/31 07:42:15;;;;;;;0.20;0.20;;;;;;;20.21;41.19;100304.22;5113183;27;20067;-32
2022/01/31 07:44:40;;;;;;;0.20;0.20;;;;;;;20.23;41.11;100307.47;5127507;27;20042;-30
2022/01/31 07:47:06;;;;;;;0.20;0.20;;;;;;;20.23;41.23;100316.59;5116088;28;20102;-30
2022/01/31 07:49:32;;;;;;;0.10;0.10;;;;;;;20.21;41.12;100316.09;5082925;27;20044;-31
2022/01/31 07:51:59;;;;;;;0.15;0.15;;;;;;;20.22;41.12;100312.19;5117302;27;20047;-30
2022/01/31 07:54:24;;;;;;;0.20;0.20;;;;;;;20.23;41.18;100318.53;5098856;27;20540;-31
2022/01/31 07:56:50;;;;;;;0.20;0.20;;;;;;;20.22;41.43;100308.59;5114643;27;20043;-31
2022/01/31 07:59:16;;;;;;;0.20;0.20;;;;;;;20.20;41.28;100306.13;5111186;27;20075;-31
2022/01/31 08:01:41;;;;;;;0.20;0.20;;;;;;;20.21;41.02;100304.22;5108512;27;20316;-33
2022/01/31 08:04:07;;;;;;;0.10;0.10;;;;;;;20.21;41.07;100302.25;5105454;27;20115;-32
2022/01/31 08:06:33;;;;;;;0.20;0.20;;;;;;;20.20;41.22;100302.53;5102989;27;20051;-32
2022/01/31 08:08:59;;;;;;;0.20;0.20;;;;;;;20.19;40.85;100317.50;5099768;27;20928;-32
2022/01/31 08:11:30;;;;;;;0.20;0.20;;;;;;;20.19;40.96;100314.75;5087798;28;20418;-38
2022/01/31 08:14:00;;;;;;;0.10;0.10;;;;;;;20.19;41.05;100317.50;5109659;27;20075;-30
2022/01/31 08:16:26;;;;;;;0.20;0.20;;;;;;;20.20;40.89;100332.97;5088505;27;20094;-31
2022/01/31 08:18:52;;;;;;;0.20;0.20;;;;;;;20.20;40.96;100321.91;5108927;27;20474;-35
2022/01/31 08:21:20;;;;;;;0.20;0.20;;;;;;;20.20;41.08;100333.78;5094313;27;20078;-29
2022/01/31 08:23:46;;;;;;;0.20;0.20;;;;;;;20.20;40.91;100327.44;5112326;27;20342;-30
2022/01/31 08:26:16;;;;;;;0.20;0.20;;;;;;;20.19;40.73;100325.78;5115053;27;20066;-35
2022/01/31 08:28:47;;;;;;;0.20;0.20;;;;;;;20.19;41.14;100323.03;5091909;27;20097;-30
2022/01/31 08:31:22;;;;;;;0.20;0.20;;;;;;;20.19;41.02;100320.25;5107700;27;20036;-31
2022/01/31 08:34:02;;;;;;;0.20;0.20;;;;;;;20.17;41.06;100320.59;5109528;27;20050;-33
2022/01/31 08:36:30;;;;;;;0.20;0.20;;;;;;;20.19;40.69;100334.09;5114216;28;20077;-32
2022/01/31 08:38:56;;;;;;;0.20;0.20;;;;;;;20.18;41.01;100327.75;5111017;27;20047;-30
2022/01/31 08:41:24;;;;;;;0.20;0.20;;;;;;;20.17;40.80;100330.81;5098927;27;20209;-30
2022/01/31 08:43:50;;;;;;;0.20;0.20;;;;;;;20.17;40.68;100322.53;5081270;27;20067;-33
2022/01/31 08:46:16;;;;;;;0.20;0.20;;;;;;;20.15;40.65;100314.50;5111661;27;20302;-30
2022/01/31 08:48:42;;;;;;;0.20;0.20;;;;;;;20.16;40.85;100318.09;5114568;27;21446;-30
2022/01/31 08:51:09;;;;;;;0.20;0.20;;;;;;;20.15;40.67;100319.22;5114209;27;20146;-31
2022/01/31 08:53:35;;;;;;;0.20;0.20;;;;;;;20.16;40.95;100302.31;5108025;27;20062;-31
2022/01/31 08:56:08;;;;;;;0.20;0.20;;;;;;;20.16;40.81;100321.69;5105965;27;20043;-31
2022/01/31 08:58:40;;;;;;;0.20;0.20;;;;;;;20.14;40.89;100312.88;5105882;27;20066;-30
2022/01/31 09:01:08;;;;;;;0.20;0.20;;;;;;;20.15;40.90;100308.16;5102901;28;20047;-31
2022/01/31 09:03:43;;;;;;;0.20;0.20;;;;;;;20.14;40.74;100310.13;5122155;27;20038;-34
2022/01/31 09:06:12;;;;;;;0.20;0.20;;;;;;;20.13;40.63;100308.47;5110342;27;20047;-30
2022/01/31 09:08:38;;;;;;;0.10;0.10;;;;;;;20.14;40.23;100295.47;5116205;27;20079;-31
2022/01/31 09:11:04;;;;;;;0.20;0.20;;;;;;;20.14;40.36;100293.53;5096254;28;20035;-31
2022/01/31 09:13:30;;;;;;;0.20;0.20;;;;;;;20.12;40.84;100295.78;5087935;27;20074;-31
2022/01/31 09:15:57;;;;;;;0.20;0.20;;;;;;;20.13;40.58;100313.19;5112223;27;20047;-32
2022/01/31 09:18:23;;;;;;;0.20;0.20;;;;;;;20.13;40.07;100291.91;5091267;27;20179;-30
2022/01/31 09:20:48;;;;;;;0.20;0.20;;;;;;;20.12;40.22;100290.25;5112043;27;20047;-36
2022/01/31 09:23:14;;;;;;;0.20;0.20;;;;;;;20.13;40.10;100288.31;5093074;28;20463;-32
2022/01/31 09:25:45;;;;;;;0.20;0.20;;;;;;;20.11;40.08;100282.25;5112632;27;20135;-31
2022/01/31 09:28:13;;;;;;;0.20;0.20;;;;;;;20.12;40.32;100281.13;5099401;27;21400;-33
2022/01/31 09:30:39;;;;;;;0.20;0.20;;;;;;;20.10;40.11;100278.66;5097495;27;20044;-35
2022/01/31 09:33:05;;;;;;;0.20;0.20;;;;;;;20.10;40.38;100278.66;5076342;27;20200;-31
2022/01/31 09:35:33;;;;;;;0.20;0.20;;;;;;;20.08;39.96;100271.78;5089335;27;20054;-32
2022/01/31 09:38:00;;;;;;;0.20;0.20;;;;;;;20.07;40.12;100279.25;5106853;27;20055;-37
2022/01/31 09:40:26;;;;;;;0.20;0.20;;;;;;;20.08;40.10;100267.09;5088884;27;20346;-30
2022/01/31 09:48:32;;;;;;;0.20;0.20;;;;;;;20.00;39.12;100281.63;5155797;27;20210;-26
2022/01/31 09:51:00;;;;;;;0.20;0.20;;;;;;;19.91;39.50;100275.94;5111022;27;20331;-26
2022/01/31 09:53:26;;;;;;;0.20;0.20;;;;;;;19.97;40.04;100287.75;5133158;27;20111;-26
2022/01/31 09:55:53;;;;;;;0.20;0.20;;;;;;;19.97;39.77;100276.69;5130246;27;20040;-27
2022/01/31 09:58:19;;;;;;;0.10;0.10;;;;;;;19.94;39.62;100263.47;5133879;27;20397;-27
2022/01/31 10:00:45;;;;;;;0.20;0.20;;;;;;;20.01;39.84;100272.19;5147369;27;20350;-26
2022/01/31 10:03:11;;;;;;;0.20;0.20;;;;;;;20.01;39.99;100270.25;5113026;27;20061;-26
2022/01/31 10:05:38;;;;;;;0.20;0.20;;;;;;;19.95;37.76;100277.00;5114371;27;20550;-28
2022/01/31 10:08:12;;;;;;;0.20;0.20;;;;;;;19.83;38.45;100278.59;5106486;27;20051;-26
2022/01/31 10:10:41;;;;;;;0.20;0.20;;;;;;;19.95;38.68;100290.81;5131828;27;20165;-27
2022/01/31 10:16:37;;;;;;;0.20;0.20;;;;;;;20.04;39.34;100310.28;5155613;27;20453;-26
2022/01/31 10:19:08;;;;;;;0.20;0.20;;;;;;;20.06;39.53;100308.03;5116501;27;20051;-27
2022/01/31 10:22:01;;;;;;;0.20;0.20;;;;;;;20.07;39.68;100306.09;5118636;27;20783;-26
2022/01/31 10:24:28;;;;;;;0.20;0.20;;;;;;;20.10;39.50;100311.03;5098361;27;20164;-28
2022/01/31 10:26:54;;;;;;;0.20;0.20;;;;;;;20.12;39.38;100317.91;5101394;27;20481;-27
2022/01/31 10:29:22;;;;;;;0.20;0.20;;;;;;;20.13;39.67;100322.31;5097831;27;20106;-27
2022/01/31 10:32:08;;;;;;;0.10;0.10;;;;;;;20.14;39.70;100335.00;5097438;27;21392;-27
2022/01/31 10:34:39;;;;;;;0.20;0.20;;;;;;;20.14;39.50;100326.69;5102350;28;20043;-27
2022/01/31 10:37:08;;;;;;;0.20;0.20;;;;;;;20.15;39.41;100328.34;5093950;27;20142;-27
2022/01/31 10:54:35;;;;;;;0.20;0.20;;;;;;;20.20;39.52;100361.41;5099378;27;20125;-26
2022/01/31 10:57:14;;;;;;;0.20;0.20;;;;;;;20.21;39.46;100357.56;5101213;27;20104;-26
2022/01/31 10:59:42;;;;;;;0.20;0.20;;;;;;;20.22;39.52;100355.63;5119793;27;20427;-26
2022/01/31 11:02:15;;;;;;;0.20;0.20;;;;;;;20.23;39.56;100369.13;5112715;27;20089;-27
2022/01/31 11:04:42;;;;;;;0.20;0.20;;;;;;;20.25;39.50;100371.56;5103108;27;20051;-27
2022/01/31 11:07:10;;;;;;;0.20;0.20;;;;;;;20.25;39.40;100366.91;5096930;27;20079;-27
2022/01/31 11:09:37;;;;;;;0.20;0.20;;;;;;;20.27;39.40;100361.88;5098200;27;20112;-27
2022/01/31 11:12:04;;;;;;;0.20;0.20;;;;;;;20.28;39.64;100366.28;5111393;27;20093;-26
2022/01/31 11:14:30;;;;;;;0.20;0.20;;;;;;;20.26;39.31;100363.00;5116212;27;20043;-26
2022/01/31 11:16:56;;;;;;;0.20;0.20;;;;;;;20.31;38.62;100381.44;5092146;27;21109;-27
2022/01/31 11:19:31;;;;;;;0.20;0.20;;;;;;;20.36;39.09;100370.31;5123858;27;20102;-27
2022/01/31 11:22:01;;;;;;;0.20;0.20;;;;;;;20.37;39.24;100371.13;5119227;28;20047;-27
2022/01/31 11:24:31;;;;;;;0.20;0.20;;;;;;;20.37;39.09;100379.41;5099078;28;20494;-27
2022/01/31 11:27:03;;;;;;;0.20;0.20;;;;;;;20.38;39.01;100395.72;5087523;28;20046;-27
2022/01/31 11:29:32;;;;;;;0.20;0.20;;;;;;;20.39;39.13;100393.78;5084468;28;20394;-27
2022/01/31 11:31:57;;;;;;;;;;;;;;;20.39;39.38;100391.81;5086802;28;20473;-27
2022/01/31 11:34:24;;;;;;;0.20;0.20;;;;;;;20.39;39.30;100408.41;5086094;28;20358;-26
2022/01/31 11:36:51;;;;;;;0.20;0.20;;;;;;;20.39;39.46;100419.47;5098130;28;20499;-27
2022/01/31 11:39:17;;;;;;;0.20;0.20;;;;;;;20.40;39.23;100421.13;5066289;28;20455;-27
2022/01/31 11:41:45;;;;;;;0.20;0.20;;;;;;;20.41;39.18;100431.06;5077605;28;20446;-26
2022/01/31 11:44:33;;;;;;;0.20;0.20;;;;;;;20.42;39.40;100429.97;5099217;28;20078;-27
2022/01/31 11:47:04;;;;;;;0.20;0.20;;;;;;;20.42;39.47;100431.88;5064088;28;20085;-29
2022/01/31 11:49:52;;;;;;;0.20;0.20;;;;;;;20.44;39.46;100437.94;5081726;28;20521;-29